Time,TemperatureF,DewpointF,PressureIn,WindDirection,WindDirectionDegrees,WindSpeedMPH,WindSpeedGustMPH,Humidity,HourlyPrecipIn,Conditions,Clouds,dailyrainin,SoftwareType,DateUTC
2013-01-16 00:01:00,33.4,32.1,30.10,NNW,342,2.0,5.0,95,0.00,,,0.00,Wunderground v.1.15,2013-01-16 06:01:00,
2013-01-16 00:06:00,33.3,32.0,30.11,WNW,294,2.0,5.0,95,0.00,,,0.00,Wunderground v.1.15,2013-01-16 06:06:00,
2013-01-16 00:12:00,33.2,31.9,30.11,ENE,64,2.0,7.0,95,0.00,,,0.00,Wunderground v.1.15,2013-01-16 06:12:00,
2013-01-16 00:17:00,33.1,31.8,30.11,WNW,300,2.0,2.0,95,0.00,,,0.00,Wunderground v.1.15,2013-01-16 06:17:00,
2013-01-16 00:22:00,33.0,31.7,30.12,NW,315,2.0,5.0,95,0.00,,,0.00,Wunderground v.1.15,2013-01-16 06:22:00,
2013-01-16 00:28:00,33.0,31.7,30.11,NNW,328,2.0,5.0,95,0.00,,,0.00,Wunderground v.1.15,2013-01-16 06:28:00,
2013-01-16 00:33:00,33.1,31.8,30.12,WNW,301,1.0,5.0,95,0.00,,,0.00,Wunderground v.1.15,2013-01-16 06:33:00,
2013-01-16 00:38:00,33.0,31.7,30.12,NW,307,1.0,5.0,95,0.00,,,0.00,Wunderground v.1.15,2013-01-16 06:38:00,
2013-01-16 00:44:00,33.0,31.7,30.12,WNW,294,1.0,5.0,95,0.00,,,0.00,Wunderground v.1.15,2013-01-16 06:44:00,
2013-01-16 00:49:00,33.0,31.7,30.12,NW,316,1.0,5.0,95,0.00,,,0.00,Wunderground v.1.15,2013-01-16 06:49:00,
2013-01-16 00:54:00,33.0,31.7,30.12,WNW,299,1.0,5.0,95,0.00,,,0.00,Wunderground v.1.15,2013-01-16 06:54:00,
2013-01-16 00:59:00,33.0,31.7,30.12,NW,326,1.0,5.0,95,0.00,,,0.00,Wunderground v.1.15,2013-01-16 06:59:00,
2013-01-16 01:05:00,32.9,31.6,30.12,East,81,2.0,5.0,95,0.00,,,0.00,Wunderground v.1.15,2013-01-16 07:05:00,
2013-01-16 01:10:00,32.9,31.6,30.12,WNW,283,1.0,5.0,95,0.00,,,0.00,Wunderground v.1.15,2013-01-16 07:10:00,
2013-01-16 01:15:00,33.1,31.8,30.11,NNE,22,1.0,5.0,95,0.00,,,0.00,Wunderground v.1.15,2013-01-16 07:15:00,
2013-01-16 01:21:00,33.0,31.7,30.11,West,281,1.0,5.0,95,0.00,,,0.00,Wunderground v.1.15,2013-01-16 07:21:00,
2013-01-16 01:26:00,33.0,31.7,30.11,NW,316,1.0,5.0,95,0.00,,,0.00,Wunderground v.1.15,2013-01-16 07:26:00,
2013-01-16 01:32:00,33.0,31.7,30.12,WNW,297,1.0,5.0,95,0.00,,,0.00,Wunderground v.1.15,2013-01-16 07:32:00,
2013-01-16 01:37:00,33.0,31.7,30.12,WNW,300,1.0,5.0,95,0.00,,,0.00,Wunderground v.1.15,2013-01-16 07:37:00,
2013-01-16 01:43:00,33.1,31.8,30.12,WNW,293,1.0,5.0,95,0.00,,,0.00,Wunderground v.1.15,2013-01-16 07:43:00,
2013-01-16 01:48:00,33.1,31.8,30.11,WNW,302,1.0,5.0,95,0.00,,,0.00,Wunderground v.1.15,2013-01-16 07:48:00,
2013-01-16 01:53:00,33.1,31.8,30.11,West,276,1.0,5.0,95,0.00,,,0.00,Wunderground v.1.15,2013-01-16 07:53:00,
2013-01-16 01:58:00,33.1,31.8,30.11,NNW,341,1.0,5.0,95,0.00,,,0.00,Wunderground v.1.15,2013-01-16 07:58:00,
2013-01-16 02:04:00,33.1,31.8,30.12,WNW,290,1.0,5.0,95,0.00,,,0.00,Wunderground v.1.15,2013-01-16 08:04:00,
2013-01-16 02:09:00,33.0,31.7,30.11,NW,325,1.0,5.0,95,0.00,,,0.00,Wunderground v.1.15,2013-01-16 08:09:00,
2013-01-16 02:14:00,33.0,31.7,30.12,West,260,1.0,5.0,95,0.00,,,0.00,Wunderground v.1.15,2013-01-16 08:14:00,
2013-01-16 02:19:00,33.0,31.7,30.13,WNW,302,1.0,5.0,95,0.00,,,0.00,Wunderground v.1.15,2013-01-16 08:19:00,
2013-01-16 02:25:00,33.1,31.8,30.14,NW,321,1.0,5.0,95,0.00,,,0.00,Wunderground v.1.15,2013-01-16 08:25:00,
2013-01-16 02:30:00,33.0,31.7,30.14,North,354,1.0,5.0,95,0.00,,,0.01,Wunderground v.1.15,2013-01-16 08:30:00,
2013-01-16 02:35:00,33.0,31.7,30.14,NW,316,1.0,5.0,95,0.00,,,0.01,Wunderground v.1.15,2013-01-16 08:35:00,
2013-01-16 02:41:00,33.1,31.8,30.13,WNW,302,1.0,5.0,95,0.05,,,0.02,Wunderground v.1.15,2013-01-16 08:41:00,
2013-01-16 02:46:00,33.0,31.7,30.13,NNW,327,1.0,5.0,95,0.05,,,0.02,Wunderground v.1.15,2013-01-16 08:46:00,
2013-01-16 02:52:00,32.9,31.4,30.13,WNW,299,2.0,5.0,94,0.05,,,0.03,Wunderground v.1.15,2013-01-16 08:52:00,
2013-01-16 02:57:00,32.9,31.6,30.13,West,276,2.0,2.0,95,0.05,,,0.03,Wunderground v.1.15,2013-01-16 08:57:00,
2013-01-16 03:02:00,32.9,31.6,30.14,WSW,250,1.0,5.0,95,0.05,,,0.03,Wunderground v.1.15,2013-01-16 09:02:00,
2013-01-16 03:08:00,33.0,31.7,30.15,West,266,1.0,5.0,95,0.00,,,0.03,Wunderground v.1.15,2013-01-16 09:08:00,
2013-01-16 03:14:00,33.0,31.7,30.15,WNW,297,1.0,5.0,95,0.00,,,0.04,Wunderground v.1.15,2013-01-16 09:14:00,
2013-01-16 03:19:00,33.1,31.8,30.14,NNE,16,1.0,5.0,95,0.00,,,0.04,Wunderground v.1.15,2013-01-16 09:19:00,
2013-01-16 03:24:00,33.0,31.7,30.14,NW,319,1.0,5.0,95,0.00,,,0.04,Wunderground v.1.15,2013-01-16 09:24:00,
2013-01-16 03:30:00,32.9,31.6,30.13,NW,318,1.0,5.0,95,0.00,,,0.04,Wunderground v.1.15,2013-01-16 09:30:00,
2013-01-16 03:35:00,32.9,31.6,30.14,WNW,291,1.0,5.0,95,0.00,,,0.04,Wunderground v.1.15,2013-01-16 09:35:00,
2013-01-16 03:40:00,32.9,31.6,30.14,NW,311,1.0,5.0,95,0.00,,,0.04,Wunderground v.1.15,2013-01-16 09:40:00,
2013-01-16 03:46:00,32.9,31.6,30.14,SSE,151,1.0,5.0,95,0.00,,,0.04,Wunderground v.1.15,2013-01-16 09:46:00,
2013-01-16 03:52:00,32.9,31.6,30.13,North,353,2.0,5.0,95,0.00,,,0.04,Wunderground v.1.15,2013-01-16 09:52:00,
2013-01-16 03:58:00,32.9,31.6,30.12,NNE,20,1.0,5.0,95,0.00,,,0.04,Wunderground v.1.15,2013-01-16 09:58:00,
2013-01-16 04:03:00,32.9,31.6,30.13,WNW,299,1.0,5.0,95,0.00,,,0.04,Wunderground v.1.15,2013-01-16 10:03:00,
2013-01-16 04:09:00,32.9,31.6,30.13,WSW,243,1.0,5.0,95,0.00,,,0.05,Wunderground v.1.15,2013-01-16 10:09:00,
2013-01-16 04:14:00,32.9,31.6,30.13,NW,324,1.0,5.0,95,0.00,,,0.05,Wunderground v.1.15,2013-01-16 10:14:00,
2013-01-16 04:19:00,32.9,31.6,30.13,NW,318,1.0,5.0,95,0.06,,,0.06,Wunderground v.1.15,2013-01-16 10:19:00,
2013-01-16 04:24:00,32.9,31.6,30.13,WNW,285,1.0,5.0,95,0.06,,,0.06,Wunderground v.1.15,2013-01-16 10:24:00,
2013-01-16 04:29:00,32.8,31.5,30.12,North,10,1.0,5.0,95,0.05,,,0.06,Wunderground v.1.15,2013-01-16 10:29:00,
2013-01-16 04:35:00,32.9,31.6,30.12,WNW,302,1.0,5.0,95,0.00,,,0.07,Wunderground v.1.15,2013-01-16 10:35:00,
2013-01-16 04:40:00,32.9,31.6,30.12,NW,316,0.0,5.0,95,0.00,,,0.07,Wunderground v.1.15,2013-01-16 10:40:00,
2013-01-16 04:45:00,32.9,31.6,30.13,WSW,257,1.0,5.0,95,0.00,,,0.07,Wunderground v.1.15,2013-01-16 10:45:00,
2013-01-16 04:50:00,32.8,31.5,30.14,NNW,328,2.0,5.0,95,0.00,,,0.07,Wunderground v.1.15,2013-01-16 10:50:00,
2013-01-16 04:56:00,32.8,31.5,30.12,WNW,285,1.0,5.0,95,0.00,,,0.07,Wunderground v.1.15,2013-01-16 10:56:00,
2013-01-16 05:01:00,32.9,31.6,30.11,WNW,297,1.0,5.0,95,0.00,,,0.07,Wunderground v.1.15,2013-01-16 11:01:00,
2013-01-16 05:07:00,32.9,31.6,30.13,West,262,1.0,5.0,95,0.00,,,0.08,Wunderground v.1.15,2013-01-16 11:07:00,
2013-01-16 05:12:00,32.7,31.4,30.16,West,278,2.0,5.0,95,0.00,,,0.08,Wunderground v.1.15,2013-01-16 11:12:00,
2013-01-16 05:17:00,32.8,31.5,30.14,NW,319,3.0,3.0,95,0.00,,,0.08,Wunderground v.1.15,2013-01-16 11:17:00,
2013-01-16 05:22:00,32.8,31.5,30.15,WNW,299,2.0,5.0,95,0.00,,,0.08,Wunderground v.1.15,2013-01-16 11:22:00,
2013-01-16 05:28:00,32.8,31.5,30.15,WNW,297,2.0,6.0,95,0.00,,,0.08,Wunderground v.1.15,2013-01-16 11:28:00,
2013-01-16 05:33:00,32.8,31.5,30.16,West,270,3.0,6.0,95,0.00,,,0.08,Wunderground v.1.15,2013-01-16 11:33:00,
2013-01-16 05:38:00,32.8,31.5,30.16,WNW,297,2.0,5.0,95,0.00,,,0.08,Wunderground v.1.15,2013-01-16 11:38:00,
2013-01-16 05:44:00,32.8,31.5,30.18,NW,315,3.0,5.0,95,0.00,,,0.08,Wunderground v.1.15,2013-01-16 11:44:00,
2013-01-16 05:49:00,32.9,31.6,30.17,ENE,68,2.0,5.0,95,0.00,,,0.08,Wunderground v.1.15,2013-01-16 11:49:00,
2013-01-16 05:54:00,32.9,31.6,30.18,NW,316,2.0,5.0,95,0.00,,,0.10,Wunderground v.1.15,2013-01-16 11:54:00,
2013-01-16 06:00:00,33.0,31.7,30.18,WNW,302,2.0,5.0,95,0.00,,,0.10,Wunderground v.1.15,2013-01-16 12:00:00,
2013-01-16 06:06:00,33.0,31.7,30.17,WNW,289,2.0,5.0,95,0.00,,,0.10,Wunderground v.1.15,2013-01-16 12:06:00,
2013-01-16 06:11:00,33.1,31.8,30.17,West,262,2.0,5.0,95,0.00,,,0.10,Wunderground v.1.15,2013-01-16 12:11:00,
2013-01-16 06:17:00,33.1,31.8,30.17,WNW,295,1.0,5.0,95,0.00,,,0.10,Wunderground v.1.15,2013-01-16 12:17:00,
2013-01-16 06:22:00,33.1,31.8,30.15,NW,305,2.0,5.0,95,0.00,,,0.10,Wunderground v.1.15,2013-01-16 12:22:00,
2013-01-16 06:27:00,33.2,31.9,30.16,ENE,60,2.0,2.0,95,0.00,,,0.10,Wunderground v.1.15,2013-01-16 12:27:00,
2013-01-16 06:32:00,33.2,31.9,30.16,NNW,341,1.0,5.0,95,0.00,,,0.10,Wunderground v.1.15,2013-01-16 12:32:00,
2013-01-16 06:38:00,33.2,31.9,30.16,West,281,1.0,5.0,95,0.00,,,0.10,Wunderground v.1.15,2013-01-16 12:38:00,
2013-01-16 06:43:00,33.2,31.9,30.15,NNW,340,1.0,5.0,95,0.00,,,0.10,Wunderground v.1.15,2013-01-16 12:43:00,
2013-01-16 06:48:00,33.3,32.0,30.17,NW,316,1.0,5.0,95,0.00,,,0.10,Wunderground v.1.15,2013-01-16 12:48:00,
2013-01-16 06:53:00,33.3,32.0,30.18,NNW,338,1.0,5.0,95,0.00,,,0.10,Wunderground v.1.15,2013-01-16 12:53:00,
2013-01-16 06:59:00,33.3,32.0,30.18,SW,228,1.0,5.0,95,0.00,,,0.10,Wunderground v.1.15,2013-01-16 12:59:00,
2013-01-16 07:05:00,33.4,32.1,30.16,ENE,60,1.0,6.0,95,0.00,,,0.10,Wunderground v.1.15,2013-01-16 13:05:00,
2013-01-16 07:10:00,33.4,32.1,30.18,WSW,245,1.0,5.0,95,0.00,,,0.10,Wunderground v.1.15,2013-01-16 13:10:00,
2013-01-16 07:15:00,33.4,32.1,30.17,NW,305,1.0,5.0,95,0.00,,,0.10,Wunderground v.1.15,2013-01-16 13:15:00,
2013-01-16 07:20:00,33.4,32.1,30.17,NNE,23,1.0,5.0,95,0.00,,,0.10,Wunderground v.1.15,2013-01-16 13:20:00,
2013-01-16 07:26:00,33.5,32.2,30.17,NW,319,1.0,5.0,95,0.00,,,0.10,Wunderground v.1.15,2013-01-16 13:26:00,
2013-01-16 07:31:00,33.5,32.2,30.18,NNE,26,1.0,5.0,95,0.00,,,0.10,Wunderground v.1.15,2013-01-16 13:31:00,
2013-01-16 07:37:00,33.5,32.2,30.18,NNE,12,1.0,1.0,95,0.00,,,0.10,Wunderground v.1.15,2013-01-16 13:37:00,
2013-01-16 07:42:00,33.6,32.3,30.17,NE,43,1.0,5.0,95,0.00,,,0.10,Wunderground v.1.15,2013-01-16 13:42:00,
2013-01-16 07:47:00,33.6,32.3,30.17,NE,47,1.0,1.0,95,0.00,,,0.10,Wunderground v.1.15,2013-01-16 13:47:00,
2013-01-16 07:52:00,33.6,32.3,30.17,West,274,1.0,5.0,95,0.00,,,0.10,Wunderground v.1.15,2013-01-16 13:52:00,
2013-01-16 07:57:00,33.6,32.3,30.18,NNE,32,1.0,5.0,95,0.00,,,0.10,Wunderground v.1.15,2013-01-16 13:57:00,
2013-01-16 08:03:00,33.8,32.5,30.18,NE,50,1.0,5.0,95,0.00,,,0.10,Wunderground v.1.15,2013-01-16 14:03:00,
2013-01-16 08:08:00,33.8,32.5,30.18,NNW,344,0.0,5.0,95,0.00,,,0.10,Wunderground v.1.15,2013-01-16 14:08:00,
2013-01-16 08:13:00,33.9,32.6,30.19,West,264,0.0,5.0,95,0.00,,,0.10,Wunderground v.1.15,2013-01-16 14:13:00,
2013-01-16 08:18:00,33.9,32.6,30.20,WNW,298,0.0,5.0,95,0.00,,,0.10,Wunderground v.1.15,2013-01-16 14:18:00,
2013-01-16 08:24:00,34.0,32.7,30.21,WSW,249,0.0,5.0,95,0.00,,,0.10,Wunderground v.1.15,2013-01-16 14:24:00,
2013-01-16 08:29:00,34.0,32.7,30.21,North,352,0.0,5.0,95,0.00,,,0.10,Wunderground v.1.15,2013-01-16 14:29:00,
2013-01-16 08:34:00,34.0,32.7,30.21,West,274,0.0,5.0,95,0.00,,,0.10,Wunderground v.1.15,2013-01-16 14:34:00,
2013-01-16 08:39:00,34.1,32.8,30.22,WNW,294,1.0,5.0,95,0.00,,,0.10,Wunderground v.1.15,2013-01-16 14:39:00,
2013-01-16 08:45:00,34.1,32.8,30.22,WSW,252,1.0,5.0,95,0.00,,,0.11,Wunderground v.1.15,2013-01-16 14:45:00,
2013-01-16 08:50:00,34.0,32.7,30.23,WNW,302,1.0,5.0,95,0.00,,,0.11,Wunderground v.1.15,2013-01-16 14:50:00,
2013-01-16 08:56:00,34.1,32.8,30.23,NNW,340,1.0,5.0,95,0.00,,,0.11,Wunderground v.1.15,2013-01-16 14:56:00,
2013-01-16 09:01:00,34.1,32.8,30.22,NW,323,1.0,5.0,95,0.00,,,0.11,Wunderground v.1.15,2013-01-16 15:01:00,
2013-01-16 09:06:00,34.0,32.7,30.22,WNW,297,1.0,5.0,95,0.00,,,0.11,Wunderground v.1.15,2013-01-16 15:06:00,
2013-01-16 09:12:00,34.1,32.8,30.23,NNW,330,1.0,5.0,95,0.00,,,0.11,Wunderground v.1.15,2013-01-16 15:12:00,
2013-01-16 09:17:00,34.0,32.7,30.22,WNW,295,1.0,5.0,95,0.00,,,0.11,Wunderground v.1.15,2013-01-16 15:17:00,
2013-01-16 09:22:00,34.0,32.7,30.22,NNW,345,2.0,5.0,95,0.00,,,0.11,Wunderground v.1.15,2013-01-16 15:22:00,
2013-01-16 09:28:00,34.1,32.8,30.23,WNW,288,2.0,5.0,95,0.00,,,0.11,Wunderground v.1.15,2013-01-16 15:28:00,
2013-01-16 09:34:00,34.0,32.7,30.23,West,262,2.0,8.0,95,0.00,,,0.11,Wunderground v.1.15,2013-01-16 15:34:00,
2013-01-16 09:39:00,34.1,32.8,30.23,NW,315,2.0,5.0,95,0.00,,,0.11,Wunderground v.1.15,2013-01-16 15:39:00,
2013-01-16 09:44:00,34.1,32.8,30.24,NW,304,2.0,5.0,95,0.00,,,0.11,Wunderground v.1.15,2013-01-16 15:44:00,
2013-01-16 09:49:00,34.2,32.9,30.24,ENE,58,2.0,5.0,95,0.00,,,0.11,Wunderground v.1.15,2013-01-16 15:49:00,
2013-01-16 09:55:00,34.3,33.0,30.24,WNW,282,2.0,5.0,95,0.00,,,0.11,Wunderground v.1.15,2013-01-16 15:55:00,
2013-01-16 10:00:00,34.4,33.1,30.24,NNW,327,1.0,5.0,95,0.00,,,0.11,Wunderground v.1.15,2013-01-16 16:00:00,
2013-01-16 10:05:00,34.4,33.1,30.24,NW,311,2.0,5.0,95,0.00,,,0.11,Wunderground v.1.15,2013-01-16 16:05:00,
2013-01-16 10:10:00,34.5,33.2,30.24,West,278,2.0,5.0,95,0.00,,,0.11,Wunderground v.1.15,2013-01-16 16:10:00,
2013-01-16 10:16:00,34.5,33.0,30.25,WNW,290,2.0,5.0,94,0.00,,,0.11,Wunderground v.1.15,2013-01-16 16:16:00,
2013-01-16 10:21:00,34.6,33.1,30.24,WSW,257,2.0,5.0,94,0.00,,,0.11,Wunderground v.1.15,2013-01-16 16:21:00,
2013-01-16 10:27:00,34.8,33.5,30.24,NW,307,1.0,5.0,95,0.00,,,0.11,Wunderground v.1.15,2013-01-16 16:27:00,
2013-01-16 10:32:00,34.9,33.3,30.23,NW,314,1.0,6.0,94,0.00,,,0.11,Wunderground v.1.15,2013-01-16 16:32:00,
2013-01-16 10:37:00,35.0,33.4,30.23,West,262,1.0,5.0,94,0.00,,,0.11,Wunderground v.1.15,2013-01-16 16:37:00,
2013-01-16 10:42:00,35.2,33.9,30.23,West,263,1.0,5.0,95,0.00,,,0.11,Wunderground v.1.15,2013-01-16 16:42:00,
2013-01-16 10:48:00,35.4,34.1,30.23,NNW,340,1.0,5.0,95,0.00,,,0.11,Wunderground v.1.15,2013-01-16 16:48:00,
2013-01-16 10:53:00,35.4,33.8,30.22,North,358,1.0,5.0,94,0.00,,,0.11,Wunderground v.1.15,2013-01-16 16:53:00,
2013-01-16 10:58:00,35.3,33.7,30.22,WNW,294,1.0,5.0,94,0.00,,,0.11,Wunderground v.1.15,2013-01-16 16:58:00,
2013-01-16 11:03:00,35.2,33.6,30.22,NW,312,2.0,5.0,94,0.00,,,0.11,Wunderground v.1.15,2013-01-16 17:03:00,
2013-01-16 11:09:00,35.3,33.7,30.22,NW,318,3.0,5.0,94,0.00,,,0.11,Wunderground v.1.15,2013-01-16 17:09:00,
2013-01-16 11:15:00,35.2,33.6,30.22,NW,325,2.0,5.0,94,0.00,,,0.11,Wunderground v.1.15,2013-01-16 17:15:00,
2013-01-16 11:20:00,35.1,33.5,30.22,West,263,3.0,5.0,94,0.00,,,0.12,Wunderground v.1.15,2013-01-16 17:20:00,
2013-01-16 11:25:00,35.1,33.5,30.22,NW,323,3.0,5.0,94,0.00,,,0.12,Wunderground v.1.15,2013-01-16 17:25:00,
2013-01-16 11:31:00,35.2,33.6,30.21,WSW,240,2.0,5.0,94,0.00,,,0.12,Wunderground v.1.15,2013-01-16 17:31:00,
2013-01-16 11:36:00,35.3,33.7,30.20,NNE,29,2.0,5.0,94,0.00,,,0.12,Wunderground v.1.15,2013-01-16 17:36:00,
2013-01-16 11:41:00,35.4,33.8,30.20,WNW,285,2.0,5.0,94,0.00,,,0.12,Wunderground v.1.15,2013-01-16 17:41:00,
2013-01-16 11:47:00,35.4,33.8,30.21,NW,324,3.0,3.0,94,0.00,,,0.12,Wunderground v.1.15,2013-01-16 17:47:00,
2013-01-16 11:52:00,35.5,33.9,30.20,WNW,302,3.0,6.0,94,0.00,,,0.12,Wunderground v.1.15,2013-01-16 17:52:00,
2013-01-16 11:57:00,35.5,33.9,30.20,NW,318,3.0,3.0,94,0.00,,,0.12,Wunderground v.1.15,2013-01-16 17:57:00,
2013-01-16 12:03:00,35.7,34.1,30.20,North,356,2.0,5.0,94,0.00,,,0.12,Wunderground v.1.15,2013-01-16 18:03:00,
2013-01-16 12:08:00,35.7,34.1,30.19,NNE,30,2.0,4.0,94,0.00,,,0.12,Wunderground v.1.15,2013-01-16 18:08:00,
2013-01-16 12:13:00,35.8,34.2,30.19,NW,314,2.0,4.0,94,0.00,,,0.12,Wunderground v.1.15,2013-01-16 18:13:00,
2013-01-16 12:19:00,35.6,34.0,30.20,WSW,257,2.0,4.0,94,0.00,,,0.12,Wunderground v.1.15,2013-01-16 18:19:00,
2013-01-16 12:24:00,35.7,34.1,30.20,NW,304,2.0,4.0,94,0.00,,,0.12,Wunderground v.1.15,2013-01-16 18:24:00,
2013-01-16 12:29:00,35.8,34.2,30.20,NW,324,1.0,4.0,94,0.00,,,0.12,Wunderground v.1.15,2013-01-16 18:29:00,
2013-01-16 12:34:00,35.8,34.2,30.20,North,5,2.0,4.0,94,0.00,,,0.12,Wunderground v.1.15,2013-01-16 18:34:00,
2013-01-16 12:40:00,35.9,34.3,30.19,WNW,298,2.0,2.0,94,0.00,,,0.12,Wunderground v.1.15,2013-01-16 18:40:00,
2013-01-16 12:45:00,35.9,34.3,30.19,NW,305,1.0,2.0,94,0.00,,,0.12,Wunderground v.1.15,2013-01-16 18:45:00,
2013-01-16 12:50:00,35.9,34.3,30.19,NW,317,1.0,3.0,94,0.00,,,0.12,Wunderground v.1.15,2013-01-16 18:50:00,
2013-01-16 12:55:00,36.0,34.4,30.19,WNW,293,1.0,3.0,94,0.00,,,0.12,Wunderground v.1.15,2013-01-16 18:55:00,
2013-01-16 13:01:00,36.3,34.7,30.18,North,360,1.0,6.0,94,0.00,,,0.12,Wunderground v.1.15,2013-01-16 19:01:00,
2013-01-16 13:06:00,36.4,34.8,30.18,West,274,1.0,6.0,94,0.00,,,0.12,Wunderground v.1.15,2013-01-16 19:06:00,
2013-01-16 13:11:00,36.4,34.6,30.19,West,263,1.0,6.0,93,0.00,,,0.12,Wunderground v.1.15,2013-01-16 19:11:00,
2013-01-16 13:16:00,36.7,35.1,30.19,WNW,288,1.0,6.0,94,0.00,,,0.12,Wunderground v.1.15,2013-01-16 19:16:00,
2013-01-16 13:22:00,36.4,34.6,30.19,WSW,252,2.0,6.0,93,0.00,,,0.12,Wunderground v.1.15,2013-01-16 19:22:00,
2013-01-16 13:28:00,36.4,34.6,30.18,WNW,302,2.0,6.0,93,0.00,,,0.12,Wunderground v.1.15,2013-01-16 19:28:00,
2013-01-16 13:33:00,36.4,34.6,30.18,ENE,62,3.0,6.0,93,0.00,,,0.12,Wunderground v.1.15,2013-01-16 19:33:00,
2013-01-16 13:38:00,36.5,34.7,30.18,NW,322,2.0,6.0,93,0.00,,,0.12,Wunderground v.1.15,2013-01-16 19:38:00,
2013-01-16 13:44:00,36.7,34.6,30.18,West,277,2.0,6.0,92,0.00,,,0.12,Wunderground v.1.15,2013-01-16 19:44:00,
2013-01-16 13:50:00,36.7,34.3,30.18,West,278,2.0,6.0,91,0.00,,,0.12,Wunderground v.1.15,2013-01-16 19:50:00,
2013-01-16 13:56:00,36.7,34.0,30.18,NW,305,3.0,9.0,90,0.00,,,0.12,Wunderground v.1.15,2013-01-16 19:56:00,
2013-01-16 14:02:00,36.8,34.1,30.18,WNW,297,3.0,6.0,90,0.00,,,0.12,Wunderground v.1.15,2013-01-16 20:02:00,
2013-01-16 14:08:00,36.9,34.0,30.18,NW,305,2.0,6.0,89,0.00,,,0.12,Wunderground v.1.15,2013-01-16 20:08:00,
2013-01-16 14:13:00,37.0,33.8,30.17,North,359,2.0,6.0,88,0.00,,,0.12,Wunderground v.1.15,2013-01-16 20:13:00,
2013-01-16 14:18:00,37.1,33.9,30.17,NNW,328,2.0,6.0,88,0.00,,,0.12,Wunderground v.1.15,2013-01-16 20:18:00,
2013-01-16 14:24:00,37.2,34.0,30.17,NNW,328,2.0,6.0,88,0.00,,,0.12,Wunderground v.1.15,2013-01-16 20:24:00,
2013-01-16 14:30:00,37.3,33.8,30.17,NW,315,2.0,6.0,87,0.00,,,0.12,Wunderground v.1.15,2013-01-16 20:30:00,
2013-01-16 14:35:00,37.3,33.8,30.17,WNW,293,2.0,7.0,87,0.00,,,0.12,Wunderground v.1.15,2013-01-16 20:35:00,
2013-01-16 14:40:00,37.2,33.4,30.17,NW,314,3.0,6.0,86,0.00,,,0.12,Wunderground v.1.15,2013-01-16 20:40:00,
2013-01-16 14:46:00,37.4,33.9,30.16,NW,326,2.0,6.0,87,0.00,,,0.12,Wunderground v.1.15,2013-01-16 20:46:00,
2013-01-16 14:51:00,37.5,34.0,30.16,NNW,341,1.0,6.0,87,0.00,,,0.12,Wunderground v.1.15,2013-01-16 20:51:00,
2013-01-16 14:56:00,37.3,33.8,30.16,NNW,334,1.0,6.0,87,0.00,,,0.12,Wunderground v.1.15,2013-01-16 20:56:00,
2013-01-16 15:02:00,37.2,33.7,30.16,WNW,302,1.0,6.0,87,0.00,,,0.12,Wunderground v.1.15,2013-01-16 21:02:00,
2013-01-16 15:07:00,37.3,34.1,30.16,West,263,1.0,6.0,88,0.00,,,0.12,Wunderground v.1.15,2013-01-16 21:07:00,
2013-01-16 15:12:00,37.3,34.1,30.16,NW,312,2.0,6.0,88,0.00,,,0.12,Wunderground v.1.15,2013-01-16 21:12:00,
2013-01-16 15:17:00,37.2,34.0,30.17,NW,311,2.0,6.0,88,0.00,,,0.12,Wunderground v.1.15,2013-01-16 21:17:00,
2013-01-16 15:23:00,37.0,33.8,30.17,NNW,337,3.0,6.0,88,0.00,,,0.12,Wunderground v.1.15,2013-01-16 21:23:00,
2013-01-16 15:28:00,37.1,34.2,30.18,West,264,2.0,3.0,89,0.00,,,0.12,Wunderground v.1.15,2013-01-16 21:28:00,
2013-01-16 15:33:00,37.1,34.2,30.17,WNW,293,1.0,6.0,89,0.00,,,0.12,Wunderground v.1.15,2013-01-16 21:33:00,
2013-01-16 15:39:00,37.0,34.1,30.18,SW,221,1.0,6.0,89,0.00,,,0.12,Wunderground v.1.15,2013-01-16 21:39:00,
2013-01-16 15:45:00,36.9,34.0,30.17,West,281,1.0,6.0,89,0.00,,,0.12,Wunderground v.1.15,2013-01-16 21:45:00,
2013-01-16 15:50:00,36.9,34.0,30.17,NW,314,1.0,6.0,89,0.00,,,0.12,Wunderground v.1.15,2013-01-16 21:50:00,
2013-01-16 15:56:00,37.0,34.1,30.17,WNW,297,1.0,6.0,89,0.00,,,0.12,Wunderground v.1.15,2013-01-16 21:56:00,
2013-01-16 16:01:00,36.9,34.0,30.17,WNW,286,2.0,6.0,89,0.00,,,0.12,Wunderground v.1.15,2013-01-16 22:01:00,
2013-01-16 16:07:00,37.0,34.3,30.17,NW,305,2.0,2.0,90,0.00,,,0.12,Wunderground v.1.15,2013-01-16 22:07:00,
2013-01-16 16:12:00,37.1,34.4,30.17,West,276,1.0,6.0,90,0.00,,,0.12,Wunderground v.1.15,2013-01-16 22:12:00,
2013-01-16 16:17:00,37.1,34.4,30.17,WNW,285,0.0,6.0,90,0.00,,,0.12,Wunderground v.1.15,2013-01-16 22:17:00,
2013-01-16 16:23:00,37.1,34.4,30.17,NW,308,1.0,7.0,90,0.00,,,0.12,Wunderground v.1.15,2013-01-16 22:23:00,
2013-01-16 16:29:00,37.1,34.7,30.17,NNW,340,1.0,6.0,91,0.00,,,0.12,Wunderground v.1.15,2013-01-16 22:29:00,
2013-01-16 16:34:00,37.1,34.7,30.17,WNW,302,1.0,6.0,91,0.00,,,0.12,Wunderground v.1.15,2013-01-16 22:34:00,
2013-01-16 16:39:00,37.1,34.7,30.17,ESE,123,1.0,6.0,91,0.00,,,0.12,Wunderground v.1.15,2013-01-16 22:39:00,
2013-01-16 16:45:00,37.2,34.8,30.17,NW,322,1.0,6.0,91,0.00,,,0.12,Wunderground v.1.15,2013-01-16 22:45:00,
2013-01-16 16:50:00,37.2,34.8,30.17,WSW,253,0.0,6.0,91,0.00,,,0.12,Wunderground v.1.15,2013-01-16 22:50:00,
2013-01-16 16:55:00,37.2,34.8,30.17,West,276,0.0,6.0,91,0.00,,,0.12,Wunderground v.1.15,2013-01-16 22:55:00,
2013-01-16 17:01:00,37.3,34.9,30.18,WSW,250,0.0,6.0,91,0.00,,,0.12,Wunderground v.1.15,2013-01-16 23:01:00,
2013-01-16 17:07:00,37.2,34.8,30.18,NW,314,1.0,6.0,91,0.00,,,0.12,Wunderground v.1.15,2013-01-16 23:07:00,
2013-01-16 17:12:00,37.2,34.8,30.18,WNW,295,1.0,6.0,91,0.00,,,0.12,Wunderground v.1.15,2013-01-16 23:12:00,
2013-01-16 17:17:00,37.3,34.9,30.19,West,265,1.0,6.0,91,0.00,,,0.12,Wunderground v.1.15,2013-01-16 23:17:00,
2013-01-16 17:23:00,37.3,34.9,30.19,West,274,1.0,6.0,91,0.00,,,0.12,Wunderground v.1.15,2013-01-16 23:23:00,
2013-01-16 17:28:00,37.4,35.0,30.20,West,281,1.0,6.0,91,0.00,,,0.12,Wunderground v.1.15,2013-01-16 23:28:00,
2013-01-16 17:33:00,37.4,35.0,30.19,NNW,337,1.0,6.0,91,0.00,,,0.12,Wunderground v.1.15,2013-01-16 23:33:00,
2013-01-16 17:39:00,37.5,35.1,30.19,NNW,333,0.0,6.0,91,0.00,,,0.12,Wunderground v.1.15,2013-01-16 23:39:00,
2013-01-16 17:45:00,37.6,35.2,30.19,North,5,0.0,6.0,91,0.00,,,0.12,Wunderground v.1.15,2013-01-16 23:45:00,
2013-01-16 17:50:00,37.6,35.2,30.19,North,5,0.0,6.0,91,0.00,,,0.12,Wunderground v.1.15,2013-01-16 23:50:00,
2013-01-16 17:55:00,37.6,35.2,30.20,NE,44,0.0,6.0,91,0.00,,,0.12,Wunderground v.1.15,2013-01-16 23:55:00,
2013-01-16 18:01:00,37.5,35.1,30.20,WNW,287,0.0,6.0,91,0.00,,,0.12,Wunderground v.1.15,2013-01-17 00:01:00,
2013-01-16 18:06:00,37.6,35.2,30.20,WNW,287,0.0,6.0,91,0.00,,,0.12,Wunderground v.1.15,2013-01-17 00:06:00,
2013-01-16 18:11:00,37.6,35.2,30.21,West,262,0.0,6.0,91,0.00,,,0.12,Wunderground v.1.15,2013-01-17 00:11:00,
2013-01-16 18:17:00,37.7,35.3,30.21,West,270,1.0,6.0,91,0.00,,,0.12,Wunderground v.1.15,2013-01-17 00:17:00,
2013-01-16 18:22:00,37.7,35.3,30.21,WSW,255,1.0,6.0,91,0.00,,,0.12,Wunderground v.1.15,2013-01-17 00:22:00,
2013-01-16 18:27:00,37.8,35.4,30.21,WSW,255,0.0,6.0,91,0.00,,,0.12,Wunderground v.1.15,2013-01-17 00:27:00,
2013-01-16 18:32:00,37.8,35.4,30.21,West,281,1.0,6.0,91,0.00,,,0.12,Wunderground v.1.15,2013-01-17 00:32:00,
2013-01-16 18:38:00,37.9,35.5,30.21,NW,308,2.0,6.0,91,0.00,,,0.12,Wunderground v.1.15,2013-01-17 00:38:00,
2013-01-16 18:43:00,38.0,35.6,30.22,WNW,286,2.0,6.0,91,0.00,,,0.12,Wunderground v.1.15,2013-01-17 00:43:00,
2013-01-16 18:48:00,38.0,35.6,30.22,WNW,289,1.0,6.0,91,0.00,,,0.12,Wunderground v.1.15,2013-01-17 00:48:00,
2013-01-16 18:54:00,38.1,35.7,30.23,WNW,291,1.0,6.0,91,0.00,,,0.12,Wunderground v.1.15,2013-01-17 00:54:00,
2013-01-16 18:59:00,38.1,35.7,30.23,WNW,288,1.0,6.0,91,0.00,,,0.12,Wunderground v.1.15,2013-01-17 00:59:00,
2013-01-16 19:04:00,38.1,35.7,30.23,West,266,1.0,6.0,91,0.00,,,0.12,Wunderground v.1.15,2013-01-17 01:04:00,
2013-01-16 19:09:00,38.2,35.8,30.23,WNW,300,1.0,6.0,91,0.00,,,0.12,Wunderground v.1.15,2013-01-17 01:09:00,
2013-01-16 19:15:00,38.2,35.8,30.23,WNW,297,1.0,6.0,91,0.00,,,0.12,Wunderground v.1.15,2013-01-17 01:15:00,
2013-01-16 19:20:00,38.3,35.9,30.24,WNW,289,1.0,6.0,91,0.00,,,0.12,Wunderground v.1.15,2013-01-17 01:20:00,
2013-01-16 19:25:00,38.3,35.9,30.24,WNW,289,1.0,6.0,91,0.00,,,0.12,Wunderground v.1.15,2013-01-17 01:25:00,
2013-01-16 19:30:00,38.5,36.4,30.24,WNW,289,1.0,6.0,92,0.00,,,0.12,Wunderground v.1.15,2013-01-17 01:30:00,
2013-01-16 19:36:00,38.6,36.5,30.24,WNW,290,0.0,6.0,92,0.00,,,0.12,Wunderground v.1.15,2013-01-17 01:36:00,
2013-01-16 19:41:00,38.5,36.4,30.24,WNW,289,0.0,6.0,92,0.00,,,0.12,Wunderground v.1.15,2013-01-17 01:41:00,
2013-01-16 19:47:00,38.4,36.3,30.24,WNW,290,0.0,6.0,92,0.00,,,0.12,Wunderground v.1.15,2013-01-17 01:47:00,
2013-01-16 19:52:00,38.3,36.2,30.24,WNW,290,0.0,6.0,92,0.00,,,0.12,Wunderground v.1.15,2013-01-17 01:52:00,
2013-01-16 19:57:00,38.3,36.2,30.24,WNW,291,0.0,6.0,92,0.00,,,0.12,Wunderground v.1.15,2013-01-17 01:57:00,
2013-01-16 20:03:00,38.4,36.6,30.24,WNW,291,0.0,6.0,93,0.00,,,0.12,Wunderground v.1.15,2013-01-17 02:03:00,
2013-01-16 20:08:00,38.5,36.7,30.24,WNW,291,0.0,6.0,93,0.00,,,0.12,Wunderground v.1.15,2013-01-17 02:08:00,
2013-01-16 20:13:00,38.4,36.3,30.24,WNW,290,0.0,6.0,92,0.00,,,0.12,Wunderground v.1.15,2013-01-17 02:13:00,
2013-01-16 20:18:00,38.4,36.6,30.24,WNW,291,0.0,6.0,93,0.00,,,0.12,Wunderground v.1.15,2013-01-17 02:18:00,
2013-01-16 20:23:00,38.3,36.5,30.24,WNW,290,0.0,6.0,93,0.00,,,0.12,Wunderground v.1.15,2013-01-17 02:23:00,
2013-01-16 20:29:00,38.4,36.6,30.24,WNW,290,0.0,6.0,93,0.00,,,0.12,Wunderground v.1.15,2013-01-17 02:29:00,
2013-01-16 20:34:00,38.3,36.5,30.24,WNW,290,0.0,6.0,93,0.00,,,0.12,Wunderground v.1.15,2013-01-17 02:34:00,
2013-01-16 20:39:00,38.2,36.4,30.24,WNW,291,0.0,6.0,93,0.00,,,0.12,Wunderground v.1.15,2013-01-17 02:39:00,
2013-01-16 20:44:00,38.2,36.4,30.24,WNW,290,0.0,6.0,93,0.00,,,0.12,Wunderground v.1.15,2013-01-17 02:44:00,
2013-01-16 20:50:00,38.4,36.8,30.24,WNW,291,0.0,6.0,94,0.00,,,0.12,Wunderground v.1.15,2013-01-17 02:50:00,
2013-01-16 20:55:00,38.4,36.8,30.23,WNW,291,0.0,6.0,94,0.00,,,0.12,Wunderground v.1.15,2013-01-17 02:55:00,
2013-01-16 21:00:00,38.5,36.9,30.24,WNW,291,0.0,6.0,94,0.00,,,0.12,Wunderground v.1.15,2013-01-17 03:00:00,
2013-01-16 21:05:00,38.4,36.6,30.23,WNW,291,0.0,6.0,93,0.00,,,0.12,Wunderground v.1.15,2013-01-17 03:05:00,
2013-01-16 21:11:00,38.2,36.4,30.23,WNW,291,0.0,6.0,93,0.00,,,0.12,Wunderground v.1.15,2013-01-17 03:11:00,
2013-01-16 21:16:00,38.1,36.5,30.23,WNW,290,0.0,6.0,94,0.00,,,0.12,Wunderground v.1.15,2013-01-17 03:16:00,
2013-01-16 21:22:00,38.1,36.5,30.23,WNW,291,0.0,6.0,94,0.00,,,0.12,Wunderground v.1.15,2013-01-17 03:22:00,
2013-01-16 21:27:00,38.1,36.5,30.23,WNW,291,0.0,6.0,94,0.00,,,0.12,Wunderground v.1.15,2013-01-17 03:27:00,
2013-01-16 21:32:00,38.1,36.5,30.23,WNW,290,0.0,6.0,94,0.00,,,0.12,Wunderground v.1.15,2013-01-17 03:32:00,
2013-01-16 21:37:00,38.2,36.6,30.23,WNW,290,0.0,6.0,94,0.00,,,0.12,Wunderground v.1.15,2013-01-17 03:37:00,
2013-01-16 21:43:00,38.1,36.5,30.23,WNW,291,0.0,6.0,94,0.00,,,0.12,Wunderground v.1.15,2013-01-17 03:43:00,
2013-01-16 21:48:00,38.1,36.5,30.23,WNW,291,0.0,6.0,94,0.00,,,0.12,Wunderground v.1.15,2013-01-17 03:48:00,
2013-01-16 21:53:00,38.0,36.4,30.23,WNW,291,0.0,6.0,94,0.00,,,0.12,Wunderground v.1.15,2013-01-17 03:53:00,
2013-01-16 21:58:00,38.0,36.4,30.23,WNW,290,0.0,6.0,94,0.00,,,0.12,Wunderground v.1.15,2013-01-17 03:58:00,
2013-01-16 22:04:00,38.0,36.4,30.23,WNW,291,0.0,6.0,94,0.00,,,0.12,Wunderground v.1.15,2013-01-17 04:04:00,
2013-01-16 22:09:00,38.0,36.4,30.23,WNW,290,0.0,6.0,94,0.00,,,0.12,Wunderground v.1.15,2013-01-17 04:09:00,
2013-01-16 22:14:00,38.0,36.4,30.23,WNW,291,0.0,6.0,94,0.00,,,0.12,Wunderground v.1.15,2013-01-17 04:14:00,
2013-01-16 22:20:00,38.0,36.4,30.23,WNW,291,0.0,6.0,94,0.00,,,0.12,Wunderground v.1.15,2013-01-17 04:20:00,
2013-01-16 22:25:00,37.9,36.3,30.23,WNW,291,0.0,6.0,94,0.00,,,0.12,Wunderground v.1.15,2013-01-17 04:25:00,
2013-01-16 22:30:00,37.8,36.2,30.23,WNW,291,0.0,6.0,94,0.00,,,0.12,Wunderground v.1.15,2013-01-17 04:30:00,
2013-01-16 22:35:00,37.9,36.3,30.23,WNW,291,0.0,6.0,94,0.00,,,0.12,Wunderground v.1.15,2013-01-17 04:35:00,
2013-01-16 22:41:00,37.9,36.3,30.23,WNW,290,0.0,6.0,94,0.00,,,0.12,Wunderground v.1.15,2013-01-17 04:41:00,
2013-01-16 22:47:00,37.9,36.3,30.23,WNW,291,0.0,6.0,94,0.00,,,0.12,Wunderground v.1.15,2013-01-17 04:47:00,
2013-01-16 22:52:00,37.8,36.2,30.23,WNW,290,0.0,6.0,94,0.00,,,0.12,Wunderground v.1.15,2013-01-17 04:52:00,
2013-01-16 22:57:00,37.8,36.2,30.22,WNW,291,0.0,6.0,94,0.00,,,0.12,Wunderground v.1.15,2013-01-17 04:57:00,
2013-01-16 23:03:00,37.7,36.4,30.23,WNW,290,0.0,6.0,95,0.00,,,0.12,Wunderground v.1.15,2013-01-17 05:03:00,
2013-01-16 23:04:00,37.7,36.4,30.23,WNW,291,0.0,6.0,95,0.00,,,0.12,Wunderground v.1.15,2013-01-17 05:04:00,
2013-01-16 23:05:00,37.7,36.1,30.23,WNW,290,0.0,6.0,94,0.00,,,0.12,Wunderground v.1.15,2013-01-17 05:05:00,
2013-01-16 23:10:00,37.7,36.1,30.23,West,274,0.0,6.0,94,0.00,,,0.12,Wunderground v.1.15,2013-01-17 05:10:00,
2013-01-16 23:11:00,37.7,36.1,30.23,West,276,0.0,6.0,94,0.00,,,0.12,Wunderground v.1.15,2013-01-17 05:11:00,
2013-01-16 23:16:00,37.6,36.0,30.22,West,263,1.0,6.0,94,0.00,,,0.12,Wunderground v.1.15,2013-01-17 05:16:00,
2013-01-16 23:22:00,37.6,36.0,30.22,WSW,253,1.0,6.0,94,0.00,,,0.12,Wunderground v.1.15,2013-01-17 05:22:00,
2013-01-16 23:27:00,37.6,36.0,30.22,WSW,257,1.0,1.0,94,0.00,,,0.12,Wunderground v.1.15,2013-01-17 05:27:00,
2013-01-16 23:32:00,37.6,36.0,30.23,WSW,243,1.0,6.0,94,0.00,,,0.12,Wunderground v.1.15,2013-01-17 05:32:00,
2013-01-16 23:37:00,37.5,35.9,30.22,West,276,1.0,6.0,94,0.00,,,0.12,Wunderground v.1.15,2013-01-17 05:37:00,
2013-01-16 23:43:00,37.4,35.8,30.23,West,272,1.0,6.0,94,0.00,,,0.12,Wunderground v.1.15,2013-01-17 05:43:00,
2013-01-16 23:48:00,37.3,35.7,30.23,WNW,285,0.0,6.0,94,0.00,,,0.12,Wunderground v.1.15,2013-01-17 05:48:00,
2013-01-16 23:53:00,37.1,35.5,30.23,WNW,285,0.0,6.0,94,0.00,,,0.12,Wunderground v.1.15,2013-01-17 05:53:00,